Terminal Aerodrome Forecast
Issued by NWS

Home | Current Version | Previous Version | Graphics & Text | Print | Product List | Glossary On
Versions: 1 2 3 4 5 6 7 8 9 10 11 12 13 14 15 16 17 18 19
023
FTUS43 KTOP 201600 AAB
TAFMHK
TAF AMD
KMHK 201629Z 2016/2112 01008KT P6SM OVC013
      TEMPO 2016/2020 4SM -DZ BR OVC009
     FM210600 VRB03KT P6SM SCT015=

USA.gov is the U.S. government's official web portal to all federal, state and local government web resources and services.